createdAt,value
2018-04-06T00:00:59.807Z,47.90
2018-04-06T00:03:27.372Z,48.00
2018-04-06T00:05:55.039Z,47.90
2018-04-06T00:08:22.587Z,48.00
2018-04-06T00:10:50.147Z,48.00
2018-04-06T00:13:17.747Z,48.00
2018-04-06T00:15:45.315Z,48.00
2018-04-06T00:18:14.435Z,48.00
2018-04-06T00:20:42.848Z,48.00
2018-04-06T00:23:10.452Z,47.90
2018-04-06T00:25:38.810Z,48.00
2018-04-06T00:28:06.371Z,47.90
2018-04-06T00:30:34.114Z,48.00
2018-04-06T00:33:01.759Z,48.00
2018-04-06T00:35:29.319Z,48.00
2018-04-06T00:37:56.887Z,48.00
2018-04-06T00:40:24.448Z,48.00
2018-04-06T00:42:52.016Z,48.00
2018-04-06T00:45:19.575Z,48.00
2018-04-06T00:47:47.140Z,48.00
2018-04-06T00:50:14.707Z,47.90
2018-04-06T00:52:43.059Z,48.00
2018-04-06T00:55:10.631Z,48.00
2018-04-06T00:57:38.279Z,48.00
2018-04-06T01:00:05.857Z,47.90
2018-04-06T01:02:33.415Z,48.00
2018-04-06T01:05:01.765Z,48.00
2018-04-06T01:07:29.327Z,48.00
2018-04-06T01:09:56.888Z,48.00
2018-04-06T01:12:24.537Z,48.00
2018-04-06T01:14:52.116Z,48.00
2018-04-06T01:17:19.697Z,48.00
2018-04-06T01:19:48.134Z,48.00
2018-04-06T01:22:15.729Z,48.00
2018-04-06T01:24:44.153Z,48.50
2018-04-06T01:27:11.836Z,47.90
2018-04-06T01:29:39.833Z,48.00
2018-04-06T01:32:08.236Z,48.00
2018-04-06T01:34:35.843Z,47.90
2018-04-06T01:37:03.668Z,47.90
2018-04-06T01:39:31.232Z,48.00
2018-04-06T01:41:58.847Z,47.90
2018-04-06T01:44:26.436Z,47.90
2018-04-06T01:46:54.068Z,47.90
2018-04-06T01:49:21.791Z,47.90
2018-04-06T01:51:49.450Z,47.90
2018-04-06T01:54:17.050Z,47.90
2018-04-06T01:56:45.123Z,47.90
2018-04-06T01:59:12.720Z,47.90
2018-04-06T02:01:40.349Z,47.90
2018-04-06T02:04:08.706Z,48.00
2018-04-06T02:06:36.351Z,48.50
2018-04-06T02:09:03.945Z,47.90
2018-04-06T02:11:32.315Z,48.00
2018-04-06T02:14:00.691Z,48.00
2018-04-06T02:16:29.087Z,48.00
2018-04-06T02:18:57.472Z,48.00
2018-04-06T02:21:25.848Z,47.90
2018-04-06T02:23:53.439Z,47.90
2018-04-06T02:26:21.041Z,47.90
2018-04-06T02:28:49.417Z,48.00
2018-04-06T02:31:17.775Z,48.00
2018-04-06T02:33:45.366Z,47.90
2018-04-06T02:36:13.754Z,48.00
2018-04-06T02:38:41.348Z,47.80
2018-04-06T02:41:08.932Z,47.90
2018-04-06T02:43:36.579Z,47.90
2018-04-06T02:46:04.988Z,48.10
2018-04-06T02:48:33.350Z,48.00
2018-04-06T02:51:01.685Z,47.90
2018-04-06T02:53:29.293Z,47.90
2018-04-06T02:55:57.652Z,48.00
2018-04-06T02:58:25.988Z,48.00
2018-04-06T03:00:53.611Z,47.90
2018-04-06T03:03:22.090Z,48.00
2018-04-06T03:05:50.523Z,48.00
2018-04-06T03:08:18.187Z,47.90
2018-04-06T03:10:45.784Z,47.90
2018-04-06T03:13:14.174Z,48.00
2018-04-06T03:15:42.605Z,47.90
2018-04-06T03:18:10.198Z,47.90
2018-04-06T03:20:38.587Z,48.00
2018-04-06T03:23:06.920Z,48.00
2018-04-06T03:25:34.494Z,47.90
2018-04-06T03:28:02.076Z,47.90
2018-04-06T03:30:29.674Z,47.90
2018-04-06T03:32:57.267Z,47.90
2018-04-06T03:35:24.851Z,47.90
2018-04-06T03:37:54.011Z,48.00
2018-04-06T03:40:21.616Z,47.90
2018-04-06T03:42:49.979Z,47.90
2018-04-06T03:45:18.327Z,48.00
2018-04-06T03:47:45.997Z,47.90
2018-04-06T03:50:13.611Z,47.90
2018-04-06T03:52:41.188Z,47.90
2018-04-06T03:55:08.780Z,47.90
2018-04-06T03:57:37.139Z,48.50
2018-04-06T04:00:04.837Z,47.90
2018-04-06T04:02:33.236Z,48.00
2018-04-06T04:05:00.860Z,47.90
2018-04-06T04:07:29.191Z,48.00
2018-04-06T04:09:56.770Z,47.80
2018-04-06T04:12:24.350Z,47.90
2018-04-06T04:14:52.710Z,48.30
2018-04-06T04:17:20.389Z,47.90
2018-04-06T04:19:48.013Z,47.90
2018-04-06T04:22:15.802Z,47.90
2018-04-06T04:24:43.427Z,47.90
2018-04-06T04:27:10.995Z,47.90
2018-04-06T04:29:38.775Z,47.90
2018-04-06T04:32:06.429Z,47.90
2018-04-06T04:34:34.031Z,47.90
2018-04-06T04:37:01.619Z,47.90
2018-04-06T04:39:29.275Z,47.90
2018-04-06T04:41:56.884Z,47.90
2018-04-06T04:44:25.231Z,48.00
2018-04-06T04:46:52.824Z,47.80
2018-04-06T04:49:21.171Z,47.90
2018-04-06T04:51:48.864Z,47.80
2018-04-06T04:54:17.224Z,47.90
2018-04-06T04:56:44.794Z,47.80
2018-04-06T04:59:12.486Z,47.80
2018-04-06T05:01:40.070Z,47.80
2018-04-06T05:04:07.703Z,47.80
2018-04-06T05:06:36.207Z,47.80
2018-04-06T05:09:04.591Z,47.90
2018-04-06T05:11:32.212Z,47.90
2018-04-06T05:13:59.808Z,47.80
2018-04-06T05:16:27.413Z,47.80
2018-04-06T05:18:55.749Z,47.90
2018-04-06T05:21:23.354Z,47.80
2018-04-06T05:23:51.786Z,48.00
2018-04-06T05:26:19.370Z,47.80
2018-04-06T05:28:46.955Z,47.90
2018-04-06T05:31:14.618Z,47.90
2018-04-06T05:33:42.230Z,47.80
2018-04-06T05:36:09.813Z,47.90
2018-04-06T05:38:37.484Z,47.90
2018-04-06T05:41:05.847Z,47.90
2018-04-06T05:43:33.509Z,47.80
2018-04-06T05:46:01.119Z,47.90
2018-04-06T05:48:28.789Z,47.80
2018-04-06T05:50:56.399Z,47.90
2018-04-06T05:53:24.764Z,47.90
2018-04-06T05:55:53.130Z,47.90
2018-04-06T05:58:20.860Z,47.80
2018-04-06T06:00:48.410Z,47.90
2018-04-06T06:03:16.120Z,47.90
2018-04-06T06:05:43.727Z,47.90
2018-04-06T06:08:11.332Z,48.30
2018-04-06T06:10:39.919Z,47.80
2018-04-06T06:13:07.525Z,47.80
2018-04-06T06:15:35.101Z,47.40
2018-04-06T06:18:02.703Z,47.90
2018-04-06T06:20:31.154Z,47.80
2018-04-06T06:22:58.766Z,47.80
2018-04-06T06:25:26.439Z,47.80
2018-04-06T06:27:54.053Z,47.80
2018-04-06T06:30:21.697Z,47.90
2018-04-06T06:32:49.395Z,47.80
2018-04-06T06:35:16.977Z,47.90
2018-04-06T06:37:44.651Z,47.90
2018-04-06T06:40:12.223Z,47.90
2018-04-06T06:42:41.518Z,47.90
2018-04-06T06:45:09.168Z,47.80
2018-04-06T06:47:36.903Z,47.90
2018-04-06T06:50:04.543Z,47.90
2018-04-06T06:52:32.914Z,47.80
2018-04-06T06:55:01.307Z,47.70
2018-04-06T06:57:28.900Z,47.70
2018-04-06T06:59:56.552Z,47.80
2018-04-06T07:02:24.132Z,47.80
2018-04-06T07:04:51.983Z,47.80
2018-04-06T07:07:19.634Z,47.70
2018-04-06T07:09:48.214Z,47.80
2018-04-06T07:12:15.962Z,47.80
2018-04-06T07:14:43.688Z,47.70
2018-04-06T07:17:11.328Z,47.70
2018-04-06T07:19:38.985Z,47.70
2018-04-06T07:22:06.553Z,47.70
2018-04-06T07:24:34.316Z,47.80
2018-04-06T07:27:02.031Z,47.70
2018-04-06T07:29:29.799Z,47.80
2018-04-06T07:31:57.551Z,47.70
2018-04-06T07:34:25.237Z,47.70
2018-04-06T07:36:52.931Z,47.80
2018-04-06T07:39:20.506Z,47.80
2018-04-06T07:41:49.889Z,47.70
2018-04-06T07:44:17.551Z,47.70
2018-04-06T07:46:45.244Z,47.80
2018-04-06T07:49:12.858Z,47.80
2018-04-06T07:51:41.391Z,47.80
2018-04-06T07:54:09.006Z,47.90
2018-04-06T07:56:36.739Z,47.80
2018-04-06T07:59:05.225Z,47.90
2018-04-06T08:01:32.832Z,47.90
2018-04-06T08:04:00.486Z,47.80
2018-04-06T08:06:28.820Z,47.80
2018-04-06T08:08:56.422Z,47.80
2018-04-06T08:11:24.802Z,47.60
2018-04-06T08:14:15.540Z,47.70
2018-04-06T08:16:45.045Z,47.80
2018-04-06T08:19:13.288Z,47.80
2018-04-06T08:21:42.207Z,47.80
2018-04-06T08:24:11.302Z,47.60
2018-04-06T08:26:39.904Z,47.70
2018-04-06T08:29:07.504Z,48.30
2018-04-06T08:31:35.935Z,47.60
2018-04-06T08:34:03.595Z,47.80
2018-04-06T08:36:31.167Z,47.90
2018-04-06T08:38:58.760Z,47.90
2018-04-06T08:41:27.096Z,47.60
2018-04-06T08:43:54.692Z,47.70
2018-04-06T08:46:23.135Z,47.70
2018-04-06T08:48:51.898Z,47.80
2018-04-06T08:51:19.658Z,47.90
2018-04-06T08:53:47.250Z,48.00
2018-04-06T08:56:15.649Z,47.60
2018-04-06T08:58:45.037Z,47.60
2018-04-06T09:01:13.016Z,47.80
2018-04-06T09:03:41.421Z,47.60
2018-04-06T09:06:09.012Z,47.80
2018-04-06T09:08:36.591Z,47.80
2018-04-06T09:11:04.211Z,47.80
2018-04-06T09:13:31.815Z,47.80
2018-04-06T09:15:59.392Z,47.80
2018-04-06T09:18:27.782Z,47.50
2018-04-06T09:20:56.122Z,47.60
2018-04-06T09:23:23.777Z,47.80
2018-04-06T09:25:51.463Z,47.80
2018-04-06T09:28:19.800Z,47.60
2018-04-06T09:30:47.414Z,47.80
2018-04-06T09:33:15.057Z,47.90
2018-04-06T09:35:43.415Z,47.50
2018-04-06T09:38:11.000Z,47.80
2018-04-06T09:40:42.255Z,47.50
2018-04-06T09:43:09.863Z,47.70
2018-04-06T09:45:37.512Z,47.80
2018-04-06T09:48:05.672Z,47.70
2018-04-06T09:50:36.045Z,47.70
2018-04-06T09:53:05.271Z,47.60
2018-04-06T09:55:33.468Z,47.90
2018-04-06T09:58:02.395Z,47.90
2018-04-06T10:00:34.155Z,47.60
2018-04-06T10:03:03.509Z,47.60
2018-04-06T10:05:31.300Z,47.70
2018-04-06T10:07:58.930Z,47.90
2018-04-06T10:10:26.529Z,47.80
2018-04-06T10:12:54.178Z,47.80
2018-04-06T10:15:21.787Z,47.80
2018-04-06T10:17:49.365Z,47.80
2018-04-06T10:20:17.036Z,47.80
2018-04-06T10:22:44.732Z,47.80
2018-04-06T10:25:12.363Z,47.80
2018-04-06T10:27:39.997Z,47.80
2018-04-06T10:30:07.606Z,47.80
2018-04-06T10:32:35.216Z,47.80
2018-04-06T10:35:02.810Z,47.80
2018-04-06T10:37:33.394Z,47.50
2018-04-06T10:40:01.517Z,47.70
2018-04-06T10:42:29.832Z,47.70
2018-04-06T10:44:57.456Z,47.70
2018-04-06T10:47:25.040Z,47.80
2018-04-06T10:49:53.410Z,47.60
2018-04-06T10:52:22.659Z,47.60
2018-04-06T10:54:50.273Z,47.70
2018-04-06T10:57:18.652Z,47.60
2018-04-06T10:59:47.845Z,47.60
2018-04-06T11:02:17.090Z,47.60
2018-04-06T11:04:44.683Z,47.70
2018-04-06T11:07:13.121Z,47.80
2018-04-06T11:09:42.512Z,47.70
2018-04-06T11:12:13.183Z,47.80
2018-04-06T11:14:41.735Z,47.60
2018-04-06T11:17:09.715Z,47.80
2018-04-06T11:19:38.240Z,47.70
2018-04-06T11:22:06.686Z,47.70
2018-04-06T11:24:36.359Z,47.40
2018-04-06T11:27:04.115Z,47.70
2018-04-06T11:29:31.763Z,47.70
2018-04-06T11:32:00.967Z,47.70
2018-04-06T11:34:28.581Z,47.70
2018-04-06T11:36:56.411Z,47.70
2018-04-06T11:39:24.096Z,47.70
2018-04-06T11:41:51.718Z,47.70
2018-04-06T11:44:19.367Z,47.70
2018-04-06T11:46:46.939Z,47.70
2018-04-06T11:49:14.518Z,47.80
2018-04-06T11:51:42.108Z,47.80
2018-04-06T11:54:09.881Z,47.70
2018-04-06T11:56:37.503Z,47.70
2018-04-06T11:59:05.193Z,47.70
2018-04-06T12:01:33.642Z,47.70
2018-04-06T12:04:01.208Z,47.60
2018-04-06T12:06:28.950Z,47.70
2018-04-06T12:08:56.524Z,47.70
2018-04-06T12:11:24.112Z,47.70
2018-04-06T12:13:52.458Z,47.50
2018-04-06T12:16:20.032Z,47.60
2018-04-06T12:18:47.602Z,47.70
2018-04-06T12:21:15.952Z,47.50
2018-04-06T12:23:43.545Z,47.70
2018-04-06T12:26:11.135Z,47.80
2018-04-06T12:28:39.642Z,47.70
2018-04-06T12:31:07.272Z,47.70
2018-04-06T12:33:34.870Z,47.80
2018-04-06T12:36:02.550Z,47.80
2018-04-06T12:38:30.912Z,47.70
2018-04-06T12:40:58.593Z,47.70
2018-04-06T12:43:26.940Z,47.50
2018-04-06T12:45:54.522Z,47.60
2018-04-06T12:48:22.099Z,47.70
2018-04-06T12:50:50.464Z,47.50
2018-04-06T12:53:18.919Z,47.50
2018-04-06T12:55:46.531Z,47.60
2018-04-06T12:58:14.106Z,47.70
2018-04-06T13:00:41.983Z,47.60
2018-04-06T13:03:09.611Z,47.60
2018-04-06T13:05:37.216Z,47.60
2018-04-06T13:08:04.788Z,47.60
2018-04-06T13:10:32.410Z,47.60
2018-04-06T13:12:59.990Z,47.60
2018-04-06T13:15:27.579Z,47.60
2018-04-06T13:17:55.161Z,47.60
2018-04-06T13:20:22.756Z,47.60
2018-04-06T13:22:50.332Z,47.50
2018-04-06T13:25:19.445Z,47.40
2018-04-06T13:27:47.783Z,47.40
2018-04-06T13:30:15.444Z,47.60
2018-04-06T13:32:43.208Z,47.60
2018-04-06T13:35:10.830Z,47.60
2018-04-06T13:37:38.569Z,47.60
2018-04-06T13:40:07.100Z,47.40
2018-04-06T13:42:34.685Z,47.60
2018-04-06T13:45:02.273Z,47.60
2018-04-06T13:47:30.669Z,47.40
2018-04-06T13:49:58.252Z,47.60
2018-04-06T13:52:25.830Z,47.60
2018-04-06T13:54:53.434Z,47.60
2018-04-06T13:57:21.859Z,47.40
2018-04-06T13:59:49.432Z,47.60
2018-04-06T14:02:17.014Z,47.60
2018-04-06T14:04:45.351Z,47.40
2018-04-06T14:07:12.928Z,47.60
2018-04-06T14:09:40.513Z,47.60
2018-04-06T14:12:08.860Z,47.60
2018-04-06T14:14:36.441Z,47.50
2018-04-06T14:17:04.770Z,48.10
2018-04-06T14:19:32.347Z,47.50
2018-04-06T14:21:59.920Z,47.60
2018-04-06T14:24:27.492Z,47.60
2018-04-06T14:26:55.819Z,47.40
2018-04-06T14:29:23.488Z,47.60
2018-04-06T14:31:51.056Z,47.70
2018-04-06T14:34:18.647Z,47.60
2018-04-06T14:36:47.011Z,47.40
2018-04-06T14:39:14.575Z,47.60
2018-04-06T14:41:42.181Z,47.70
2018-04-06T14:44:09.748Z,47.60
2018-04-06T14:46:37.375Z,47.60
2018-04-06T14:49:04.968Z,47.60
2018-04-06T14:51:32.539Z,47.60
2018-04-06T14:54:00.186Z,47.70
2018-04-06T14:56:27.750Z,47.60
2018-04-06T14:58:55.336Z,47.70
2018-04-06T15:01:22.928Z,47.70
2018-04-06T15:03:50.538Z,47.70
2018-04-06T15:06:18.201Z,47.60
2018-04-06T15:08:45.791Z,47.70
2018-04-06T15:11:14.240Z,47.40
2018-04-06T15:13:41.804Z,47.70
2018-04-06T15:16:10.198Z,47.40
2018-04-06T15:18:38.607Z,47.60
2018-04-06T15:21:06.188Z,47.70
2018-04-06T15:23:33.865Z,47.70
2018-04-06T15:26:01.463Z,47.70
2018-04-06T15:28:29.892Z,47.40
2018-04-06T15:30:57.477Z,47.60
2018-04-06T15:33:25.195Z,47.70
2018-04-06T15:35:52.786Z,47.70
2018-04-06T15:38:20.364Z,47.70
2018-04-06T15:40:47.963Z,47.70
2018-04-06T15:43:15.556Z,47.70
2018-04-06T15:45:43.143Z,47.70
2018-04-06T15:48:10.777Z,47.70
2018-04-06T15:50:38.543Z,47.70
2018-04-06T15:53:06.127Z,47.70
2018-04-06T15:55:34.496Z,47.40
2018-04-06T15:58:02.060Z,47.70
2018-04-06T16:00:30.581Z,47.70
2018-04-06T16:02:58.223Z,47.70
2018-04-06T16:05:25.808Z,47.70
2018-04-06T16:07:53.377Z,47.70
2018-04-06T16:10:20.955Z,47.70
2018-04-06T16:12:48.612Z,47.70
2018-04-06T16:15:16.188Z,47.70
2018-04-06T16:17:44.592Z,47.50
2018-04-06T16:20:12.177Z,47.70
2018-04-06T16:22:39.758Z,47.70
2018-04-06T16:25:09.363Z,47.70
2018-04-06T16:27:37.113Z,47.60
2018-04-06T16:30:04.696Z,47.70
2018-04-06T16:32:33.033Z,47.50
2018-04-06T16:35:00.601Z,47.80
2018-04-06T16:37:28.271Z,47.70
2018-04-06T16:39:55.871Z,47.80
2018-04-06T16:42:24.303Z,47.60
2018-04-06T16:44:51.889Z,47.70
2018-04-06T16:47:19.528Z,47.80
2018-04-06T16:49:47.106Z,47.80
2018-04-06T16:52:14.786Z,48.30
2018-04-06T16:54:43.159Z,47.70
2018-04-06T16:57:11.511Z,47.50
2018-04-06T16:59:39.870Z,47.70
2018-04-06T17:02:07.465Z,47.70
2018-04-06T17:04:35.806Z,47.30
2018-04-06T17:07:03.376Z,47.80
2018-04-06T17:09:30.950Z,47.80
2018-04-06T17:11:59.282Z,47.50
2018-04-06T17:14:27.153Z,47.70
2018-04-06T17:16:55.642Z,47.60
2018-04-06T17:19:23.208Z,47.70
2018-04-06T17:21:50.792Z,47.70
2018-04-06T17:24:18.351Z,47.80
2018-04-06T17:26:46.716Z,47.60
2018-04-06T17:29:14.625Z,47.80
2018-04-06T17:31:42.315Z,47.70
2018-04-06T17:34:09.896Z,47.70
2018-04-06T17:36:37.657Z,47.80
2018-04-06T17:39:06.839Z,47.50
2018-04-06T17:41:34.459Z,47.70
2018-04-06T17:44:02.055Z,47.70
2018-04-06T17:46:29.906Z,47.90
2018-04-06T17:48:57.548Z,47.80
2018-04-06T17:51:25.149Z,47.80
2018-04-06T17:53:52.729Z,47.80
2018-04-06T17:56:20.306Z,47.80
2018-04-06T17:58:48.649Z,47.60
2018-04-06T18:01:16.259Z,47.70
2018-04-06T18:03:43.836Z,47.80
2018-04-06T18:06:11.438Z,47.70
2018-04-06T18:08:39.163Z,47.90
2018-04-06T18:11:06.748Z,47.70
2018-04-06T18:13:34.311Z,47.80
2018-04-06T18:16:01.899Z,47.80
2018-04-06T18:18:30.240Z,47.80
2018-04-06T18:20:59.333Z,48.00
2018-04-06T18:23:28.432Z,48.00
2018-04-06T18:25:56.059Z,48.00
2018-04-06T18:28:24.019Z,48.10
2018-04-06T18:30:51.648Z,48.10
2018-04-06T18:33:19.259Z,48.10
2018-04-06T18:35:46.844Z,48.10
2018-04-06T18:38:14.510Z,48.10
2018-04-06T18:40:43.037Z,48.10
2018-04-06T18:43:12.749Z,48.10
2018-04-06T18:45:44.866Z,48.20
2018-04-06T18:48:12.647Z,48.30
2018-04-06T18:50:41.782Z,48.30
2018-04-06T18:53:10.657Z,48.30
2018-04-06T18:55:38.645Z,48.40
2018-04-06T18:58:06.388Z,48.50
2018-04-06T19:00:34.893Z,48.40
2018-04-06T19:03:02.461Z,48.60
2018-04-06T19:05:30.015Z,48.60
2018-04-06T19:07:57.572Z,48.40
2018-04-06T19:10:25.140Z,48.40
2018-04-06T19:12:52.775Z,48.30
2018-04-06T19:15:20.340Z,48.30
2018-04-06T19:17:49.380Z,48.30
2018-04-06T19:20:17.377Z,48.30
2018-04-06T19:22:45.767Z,48.10
2018-04-06T19:25:13.332Z,48.30
2018-04-06T19:27:40.899Z,48.30
2018-04-06T19:30:08.472Z,48.30
2018-04-06T19:32:36.059Z,48.30
2018-04-06T19:35:03.645Z,48.30
2018-04-06T19:37:31.264Z,48.20
2018-04-06T19:40:00.096Z,48.10
2018-04-06T19:42:28.087Z,48.10
2018-04-06T19:44:56.432Z,48.60
2018-04-06T19:47:24.039Z,48.20
2018-04-06T19:49:51.618Z,48.20
2018-04-06T19:52:19.992Z,48.10
2018-04-06T19:54:48.347Z,48.00
2018-04-06T19:57:15.989Z,48.20
2018-04-06T19:59:43.559Z,48.70
2018-04-06T20:02:11.236Z,48.30
2018-04-06T20:04:39.237Z,48.30
2018-04-06T20:07:06.845Z,48.30
2018-04-06T20:09:34.434Z,48.30
2018-04-06T20:12:02.792Z,48.10
2018-04-06T20:14:30.360Z,48.20
2018-04-06T20:16:57.919Z,48.30
2018-04-06T20:19:25.503Z,48.20
2018-04-06T20:21:53.063Z,48.30
2018-04-06T20:24:20.739Z,48.20
2018-04-06T20:26:48.402Z,48.30
2018-04-06T20:29:15.963Z,48.30
2018-04-06T20:31:45.577Z,48.20
2018-04-06T20:34:13.176Z,48.20
2018-04-06T20:36:40.776Z,48.90
2018-04-06T20:39:08.336Z,48.30
2018-04-06T20:41:36.107Z,48.30
2018-04-06T20:44:03.970Z,48.30
2018-04-06T20:46:31.582Z,48.30
2018-04-06T20:48:59.916Z,48.10
2018-04-06T20:51:27.504Z,48.10
2018-04-06T20:53:55.145Z,48.20
2018-04-06T20:56:22.803Z,48.10
2018-04-06T20:58:50.400Z,48.10
2018-04-06T21:01:19.027Z,48.10
2018-04-06T21:03:47.097Z,48.10
2018-04-06T21:06:14.715Z,48.10
2018-04-06T21:08:42.391Z,48.20
2018-04-06T21:11:11.452Z,48.30
2018-04-06T21:13:39.541Z,48.10
2018-04-06T21:16:07.156Z,48.10
2018-04-06T21:18:36.038Z,48.10
2018-04-06T21:21:03.813Z,48.10
2018-04-06T21:23:32.367Z,48.20
2018-04-06T21:25:59.979Z,48.10
2018-04-06T21:28:28.504Z,48.00
2018-04-06T21:30:56.089Z,48.10
2018-04-06T21:33:23.648Z,48.00
2018-04-06T21:35:51.208Z,48.10
2018-04-06T21:38:18.783Z,48.10
2018-04-06T21:40:46.403Z,48.20
2018-04-06T21:43:13.968Z,48.10
2018-04-06T21:45:41.532Z,48.10
2018-04-06T21:48:09.131Z,48.10
2018-04-06T21:50:37.498Z,48.30
2018-04-06T21:53:06.052Z,48.30
2018-04-06T21:55:33.643Z,48.30
2018-04-06T21:58:01.994Z,48.30
2018-04-06T22:00:29.581Z,48.30
2018-04-06T22:02:57.355Z,48.30
2018-04-06T22:05:25.651Z,48.20
2018-04-06T22:07:55.167Z,48.20
2018-04-06T22:10:23.682Z,48.30
2018-04-06T22:12:51.507Z,48.30
2018-04-06T22:15:19.168Z,48.20
2018-04-06T22:17:46.795Z,48.20
2018-04-06T22:20:14.542Z,48.20
2018-04-06T22:22:42.930Z,48.20
2018-04-06T22:25:11.329Z,48.20
2018-04-06T22:27:38.924Z,48.10
2018-04-06T22:30:06.664Z,48.20
2018-04-06T22:32:35.378Z,48.10
2018-04-06T22:35:03.358Z,48.10
2018-04-06T22:37:31.716Z,48.10
2018-04-06T22:39:59.864Z,48.10
2018-04-06T22:42:28.042Z,48.10
2018-04-06T22:44:56.417Z,48.10
2018-04-06T22:47:24.835Z,48.10
2018-04-06T22:49:52.464Z,48.10
2018-04-06T22:52:20.570Z,48.10
2018-04-06T22:54:48.195Z,48.10
2018-04-06T22:57:15.963Z,48.10
2018-04-06T22:59:44.220Z,48.10
2018-04-06T23:02:11.903Z,48.10
2018-04-06T23:04:39.618Z,48.10
2018-04-06T23:07:08.637Z,48.10
2018-04-06T23:09:36.687Z,48.10
2018-04-06T23:12:05.185Z,48.10
2018-04-06T23:14:32.748Z,48.10
2018-04-06T23:17:01.019Z,48.10
2018-04-06T23:19:29.391Z,48.10
2018-04-06T23:21:58.280Z,48.10
2018-04-06T23:24:26.648Z,48.00
2018-04-06T23:26:56.571Z,48.10
2018-04-06T23:29:24.851Z,48.10
2018-04-06T23:31:53.938Z,48.10
2018-04-06T23:34:23.238Z,48.10
2018-04-06T23:36:52.336Z,48.70
2018-04-06T23:39:21.016Z,48.00
2018-04-06T23:41:49.496Z,48.00
2018-04-06T23:44:17.607Z,48.00
2018-04-06T23:46:45.902Z,48.00
2018-04-06T23:49:14.422Z,48.10
2018-04-06T23:51:43.332Z,48.10
2018-04-06T23:54:11.591Z,48.00
2018-04-06T23:56:41.834Z,48.00
2018-04-06T23:59:11.515Z,48.10
